Time;durP1;ratioP1;P1;durP2;ratioP2;P2;SDS_P1;SDS_P2;PMS_P1;PMS_P2;Temp;Humidity;BMP_temperature;BMP_pressure;BME280_temperature;BME280_humidity;BME280_pressure;Samples;Min_cycle;Max_cycle;Signal;HPM_P1;HPM_P2
2022/03/03 00:00:35;;;;;;;;;;;13.70;53.10;;;;;;5074076;28;19929;-71
2022/03/03 00:03:02;;;;;;;;;;;13.70;53.00;;;;;;5089236;28;19928;-69
2022/03/03 00:05:29;;;;;;;;;;;13.70;53.00;;;;;;5094490;28;19967;-71
2022/03/03 00:07:55;;;;;;;;;;;13.70;53.00;;;;;;5095411;28;19924;-71
2022/03/03 00:10:22;;;;;;;;;;;13.70;53.00;;;;;;5094584;28;20292;-70
2022/03/03 00:12:48;;;;;;;;;;;13.70;53.00;;;;;;5094581;28;20311;-69
2022/03/03 00:15:16;;;;;;;;;;;13.70;53.00;;;;;;5095507;28;19928;-70
2022/03/03 00:17:43;;;;;;;;;;;13.70;52.90;;;;;;5075951;28;19924;-70
2022/03/03 00:20:11;;;;;;;;;;;13.70;52.90;;;;;;5073904;28;19925;-70
2022/03/03 00:22:37;;;;;;;;;;;13.80;53.00;;;;;;5073887;28;20297;-70
2022/03/03 00:25:05;;;;;;;;;;;13.70;52.90;;;;;;5075039;28;20292;-70
2022/03/03 00:27:31;;;;;;;;;;;13.80;53.00;;;;;;5074755;28;19975;-70
2022/03/03 00:29:58;;;;;;;;;;;13.80;52.90;;;;;;5077886;28;20395;-70
2022/03/03 00:32:26;;;;;;;;;;;13.80;52.90;;;;;;5094983;28;20395;-70
2022/03/03 00:34:52;;;;;;;;;;;14.20;53.10;;;;;;5095284;28;19983;-70
2022/03/03 00:37:19;;;;;;;;;;;13.80;52.80;;;;;;5094872;28;19924;-69
2022/03/03 00:39:45;;;;;;;;;;;13.80;52.80;;;;;;5095284;28;20113;-70
2022/03/03 00:42:12;;;;;;;;;;;13.80;52.90;;;;;;5095012;28;19946;-70
2022/03/03 00:44:39;;;;;;;;;;;13.80;52.80;;;;;;5086595;28;19925;-70
2022/03/03 00:47:05;;;;;;;;;;;13.80;52.80;;;;;;5074408;28;19955;-70
2022/03/03 00:49:33;;;;;;;;;;;13.80;52.80;;;;;;5074823;28;19931;-70
2022/03/03 00:52:00;;;;;;;;;;;13.80;52.70;;;;;;5074621;28;20015;-70
2022/03/03 00:54:26;;;;;;;;;;;13.80;52.70;;;;;;5073121;28;19928;-70
2022/03/03 00:56:53;;;;;;;;;;;13.80;52.70;;;;;;5074308;28;20013;-70
2022/03/03 00:59:20;;;;;;;;;;;13.90;52.80;;;;;;5073125;28;19929;-69
2022/03/03 01:01:46;;;;;;;;;;;13.80;52.70;;;;;;5074526;28;19935;-69
2022/03/03 01:04:13;;;;;;;;;;;13.90;52.70;;;;;;5074671;28;19925;-70
2022/03/03 01:06:41;;;;;;;;;;;13.80;52.70;;;;;;5073987;28;19925;-70
2022/03/03 01:09:08;;;;;;;;;;;13.80;52.60;;;;;;5073293;28;19924;-70
2022/03/03 01:11:34;;;;;;;;;;;13.80;52.70;;;;;;5074035;28;20340;-69
2022/03/03 01:14:01;;;;;;;;;;;13.90;52.70;;;;;;5074215;28;19924;-70
2022/03/03 01:16:27;;;;;;;;;;;13.90;52.70;;;;;;5073777;28;19924;-70
2022/03/03 01:18:54;;;;;;;;;;;13.90;52.70;;;;;;5074103;28;19956;-70
2022/03/03 01:21:20;;;;;;;;;;;13.90;52.70;;;;;;5072701;28;19932;-70
2022/03/03 01:23:48;;;;;;;;;;;13.90;52.70;;;;;;5074101;28;19924;-70
2022/03/03 01:26:15;;;;;;;;;;;13.90;52.60;;;;;;5073486;28;19924;-70
2022/03/03 01:28:41;;;;;;;;;;;13.90;52.60;;;;;;5073886;28;20011;-70
2022/03/03 01:31:08;;;;;;;;;;;13.90;52.70;;;;;;5074035;28;19931;-70
2022/03/03 01:33:35;;;;;;;;;;;13.90;52.60;;;;;;5073532;28;19925;-70
2022/03/03 01:36:01;;;;;;;;;;;13.90;52.60;;;;;;5092694;28;19924;-70
2022/03/03 01:38:28;;;;;;;;;;;13.90;52.60;;;;;;5093888;28;19930;-70
2022/03/03 01:40:56;;;;;;;;;;;13.90;52.60;;;;;;5093608;28;19931;-70
2022/03/03 01:43:22;;;;;;;;;;;13.90;52.60;;;;;;5093819;28;20443;-70
2022/03/03 01:45:49;;;;;;;;;;;13.80;52.60;;;;;;5093683;28;20276;-69
2022/03/03 01:48:15;;;;;;;;;;;13.90;52.60;;;;;;5093785;28;19930;-70
2022/03/03 01:50:42;;;;;;;;;;;13.80;52.50;;;;;;5087338;28;19931;-70
2022/03/03 01:53:08;;;;;;;;;;;13.80;52.50;;;;;;5073369;28;19925;-70
2022/03/03 01:55:35;;;;;;;;;;;13.80;52.60;;;;;;5070766;28;19925;-69
2022/03/03 01:58:04;;;;;;;;;;;13.80;52.50;;;;;;5071902;28;19925;-70
2022/03/03 02:00:34;;;;;;;;;;;15.70;53.60;;;;;;5073390;28;20058;-70
2022/03/03 02:03:01;;;;;;;;;;;13.80;52.50;;;;;;5072834;28;20367;-70
2022/03/03 02:05:28;;;;;;;;;;;14.10;52.70;;;;;;5072878;28;19925;-70
2022/03/03 02:07:55;;;;;;;;;;;13.80;52.50;;;;;;5075608;28;20278;-70
2022/03/03 02:10:21;;;;;;;;;;;13.80;52.50;;;;;;5072980;28;19987;-69
2022/03/03 02:12:48;;;;;;;;;;;13.80;52.50;;;;;;5073065;28;20280;-70
2022/03/03 02:15:19;;;;;;;;;;;13.80;52.50;;;;;;5072971;28;20304;-70
2022/03/03 02:17:46;;;;;;;;;;;13.80;52.50;;;;;;5071500;28;19924;-69
2022/03/03 02:20:19;;;;;;;;;;;13.80;52.50;;;;;;5072952;28;20002;-70
2022/03/03 02:22:46;;;;;;;;;;;13.80;52.50;;;;;;5071916;28;19925;-69
2022/03/03 02:25:12;;;;;;;;;;;13.80;52.50;;;;;;5092936;28;19930;-70
2022/03/03 02:27:39;;;;;;;;;;;13.80;52.50;;;;;;5091345;28;19934;-70
2022/03/03 02:30:06;;;;;;;;;;;13.80;52.60;;;;;;5093171;28;19970;-70
2022/03/03 02:32:32;;;;;;;;;;;13.80;52.50;;;;;;5091940;28;20400;-70
2022/03/03 02:34:59;;;;;;;;;;;13.80;52.50;;;;;;5093152;28;19924;-70
2022/03/03 02:37:32;;;;;;;;;;;13.80;52.50;;;;;;5092405;28;19924;-69
2022/03/03 02:39:58;;;;;;;;;;;14.20;52.70;;;;;;5091214;28;20402;-69
2022/03/03 02:42:25;;;;;;;;;;;13.80;52.50;;;;;;5092774;28;20399;-70
2022/03/03 02:44:52;;;;;;;;;;;13.80;52.40;;;;;;5092919;28;20307;-70
2022/03/03 02:47:18;;;;;;;;;;;13.80;52.40;;;;;;5092773;28;20011;-70
2022/03/03 02:49:45;;;;;;;;;;;13.80;52.40;;;;;;5092695;28;19946;-69
2022/03/03 02:52:11;;;;;;;;;;;13.80;52.40;;;;;;5092635;28;19924;-69
2022/03/03 02:54:39;;;;;;;;;;;13.80;52.40;;;;;;5091395;28;19929;-70
2022/03/03 02:59:50;;;;;;;;;;;13.70;52.40;;;;;;5072708;28;19920;-70
2022/03/03 03:02:16;;;;;;;;;;;13.80;52.40;;;;;;5072124;28;19931;-69
2022/03/03 03:04:43;;;;;;;;;;;13.70;52.30;;;;;;5072269;28;19931;-68
2022/03/03 03:07:09;;;;;;;;;;;13.70;52.30;;;;;;5070894;28;19931;-69
2022/03/03 03:09:36;;;;;;;;;;;13.70;52.30;;;;;;5071951;28;19924;-69
2022/03/03 03:12:04;;;;;;;;;;;14.10;52.60;;;;;;5071120;28;20065;-69
2022/03/03 03:14:31;;;;;;;;;;;13.70;52.40;;;;;;5082318;28;19930;-70
2022/03/03 03:16:57;;;;;;;;;;;13.70;52.30;;;;;;5091079;28;19930;-70
2022/03/03 03:19:24;;;;;;;;;;;13.70;52.30;;;;;;5091163;28;19930;-69
2022/03/03 03:21:51;;;;;;;;;;;13.70;52.30;;;;;;5091285;28;20284;-69
2022/03/03 03:24:17;;;;;;;;;;;13.70;52.30;;;;;;5091198;28;19931;-70
2022/03/03 03:26:44;;;;;;;;;;;14.00;52.50;;;;;;5084509;28;19931;-69
2022/03/03 03:29:12;;;;;;;;;;;13.70;52.30;;;;;;5071915;28;19924;-69
2022/03/03 03:31:38;;;;;;;;;;;13.70;52.30;;;;;;5071999;28;20407;-69
2022/03/03 03:34:05;;;;;;;;;;;13.90;52.40;;;;;;5071005;28;19935;-69
2022/03/03 03:36:32;;;;;;;;;;;13.70;52.30;;;;;;5071632;28;19924;-69
2022/03/03 03:38:58;;;;;;;;;;;13.70;52.30;;;;;;5071938;28;20406;-69
2022/03/03 03:41:25;;;;;;;;;;;14.00;52.50;;;;;;5082612;28;20381;-69
2022/03/03 03:43:52;;;;;;;;;;;13.60;52.30;;;;;;5092487;28;19928;-69
2022/03/03 03:46:20;;;;;;;;;;;13.60;52.30;;;;;;5091911;28;19925;-69
2022/03/03 03:48:46;;;;;;;;;;;13.70;52.30;;;;;;5092376;28;19924;-69
2022/03/03 03:51:13;;;;;;;;;;;13.70;52.30;;;;;;5092121;28;19931;-69
2022/03/03 03:53:40;;;;;;;;;;;13.70;52.30;;;;;;5086908;28;20377;-69
2022/03/03 03:56:06;;;;;;;;;;;13.70;52.30;;;;;;5071420;28;20293;-69
2022/03/03 03:58:33;;;;;;;;;;;13.70;52.30;;;;;;5070522;28;20316;-69
2022/03/03 04:01:00;;;;;;;;;;;13.60;52.30;;;;;;5070615;28;20292;-69
2022/03/03 04:03:27;;;;;;;;;;;13.60;52.20;;;;;;5072076;28;19967;-68
2022/03/03 04:05:54;;;;;;;;;;;13.90;52.40;;;;;;5071757;28;19931;-69
2022/03/03 04:08:20;;;;;;;;;;;13.60;52.20;;;;;;5079983;28;20007;-69
2022/03/03 04:10:47;;;;;;;;;;;13.60;52.20;;;;;;5091826;28;19924;-69
2022/03/03 04:13:15;;;;;;;;;;;13.60;52.20;;;;;;5092049;28;19928;-69
2022/03/03 04:15:41;;;;;;;;;;;13.60;52.30;;;;;;5091569;28;20019;-69
2022/03/03 04:18:08;;;;;;;;;;;13.60;52.30;;;;;;5092011;28;19927;-69
2022/03/03 04:20:36;;;;;;;;;;;14.00;52.50;;;;;;5095288;28;19971;-70
2022/03/03 04:23:03;;;;;;;;;;;13.60;52.20;;;;;;5094501;28;19931;-69
2022/03/03 04:25:29;;;;;;;;;;;13.60;52.20;;;;;;5082986;28;19924;-68
2022/03/03 04:27:56;;;;;;;;;;;13.60;52.20;;;;;;5074774;28;19924;-69
2022/03/03 04:30:22;;;;;;;;;;;13.60;52.20;;;;;;5073842;28;19924;-69
2022/03/03 04:32:49;;;;;;;;;;;14.20;52.60;;;;;;5073761;28;19924;-70
2022/03/03 04:35:16;;;;;;;;;;;13.50;52.10;;;;;;5073782;28;19924;-69
2022/03/03 04:37:43;;;;;;;;;;;13.50;52.10;;;;;;5073349;28;19924;-69
2022/03/03 04:40:10;;;;;;;;;;;13.50;52.10;;;;;;5075130;28;19930;-69
2022/03/03 04:42:37;;;;;;;;;;;13.50;52.10;;;;;;5074759;28;19931;-69
2022/03/03 04:45:04;;;;;;;;;;;13.50;52.10;;;;;;5075082;28;19924;-69
2022/03/03 04:47:31;;;;;;;;;;;13.50;52.10;;;;;;5074388;28;20336;-69
2022/03/03 04:49:57;;;;;;;;;;;13.50;52.10;;;;;;5073744;28;20060;-69
2022/03/03 04:52:24;;;;;;;;;;;13.50;52.20;;;;;;5074680;28;19924;-69
2022/03/03 04:54:52;;;;;;;;;;;13.60;52.10;;;;;;5074791;28;19924;-69
2022/03/03 04:57:19;;;;;;;;;;;13.50;52.10;;;;;;5075410;28;20033;-68
2022/03/03 04:59:45;;;;;;;;;;;13.50;52.10;;;;;;5074434;28;19924;-69
2022/03/03 05:02:12;;;;;;;;;;;13.60;52.10;;;;;;5074715;28;20003;-68
2022/03/03 05:04:39;;;;;;;;;;;14.30;52.50;;;;;;5073204;28;19950;-69
2022/03/03 05:07:05;;;;;;;;;;;13.50;52.10;;;;;;5073927;28;19924;-69
2022/03/03 05:09:32;;;;;;;;;;;13.50;52.10;;;;;;5072973;28;20457;-69
2022/03/03 05:12:00;;;;;;;;;;;13.60;52.10;;;;;;5073286;28;19932;-69
2022/03/03 05:14:26;;;;;;;;;;;14.00;52.30;;;;;;5084510;28;19932;-70
2022/03/03 05:16:53;;;;;;;;;;;13.50;52.10;;;;;;5094208;28;19924;-69
2022/03/03 05:19:19;;;;;;;;;;;13.70;52.20;;;;;;5094183;28;19924;-69
2022/03/03 05:21:46;;;;;;;;;;;13.50;52.00;;;;;;5094289;28;20484;-69
2022/03/03 05:24:12;;;;;;;;;;;13.50;52.10;;;;;;5094179;28;20304;-69
2022/03/03 05:26:39;;;;;;;;;;;13.90;52.30;;;;;;5092664;28;20272;-69
2022/03/03 05:29:07;;;;;;;;;;;13.50;52.00;;;;;;5094218;28;20272;-69
2022/03/03 05:31:34;;;;;;;;;;;13.50;52.00;;;;;;5079861;28;20323;-69
2022/03/03 05:34:03;;;;;;;;;;;13.50;52.00;;;;;;5072678;28;20447;-69
2022/03/03 05:36:29;;;;;;;;;;;13.50;52.00;;;;;;5072189;28;19968;-69
2022/03/03 05:38:57;;;;;;;;;;;13.50;52.00;;;;;;5072754;28;19924;-69
2022/03/03 05:41:23;;;;;;;;;;;13.50;52.00;;;;;;5073763;28;19925;-69
2022/03/03 05:43:50;;;;;;;;;;;13.40;52.00;;;;;;5073945;28;19924;-69
2022/03/03 05:46:17;;;;;;;;;;;13.40;52.00;;;;;;5072076;28;19931;-70
2022/03/03 05:48:44;;;;;;;;;;;13.50;52.00;;;;;;5092391;28;19930;-69
2022/03/03 05:51:11;;;;;;;;;;;13.40;52.00;;;;;;5075861;28;19924;-69
2022/03/03 05:53:38;;;;;;;;;;;14.00;52.30;;;;;;5092750;28;19935;-69
2022/03/03 05:56:07;;;;;;;;;;;13.40;52.00;;;;;;5092177;28;20387;-69
2022/03/03 05:58:36;;;;;;;;;;;14.90;52.80;;;;;;5093474;28;19924;-70
2022/03/03 06:01:02;;;;;;;;;;;13.40;52.00;;;;;;5093796;28;19928;-69
2022/03/03 06:03:30;;;;;;;;;;;13.40;52.00;;;;;;5090593;28;19928;-69
2022/03/03 06:05:59;;;;;;;;;;;13.90;52.30;;;;;;5084691;28;19932;-68
2022/03/03 06:08:30;;;;;;;;;;;13.40;51.90;;;;;;5073228;28;19979;-69
2022/03/03 06:10:58;;;;;;;;;;;13.40;52.50;;;;;;5073009;28;19929;-68
2022/03/03 06:13:25;;;;;;;;;;;13.40;51.90;;;;;;5073031;28;19924;-69
2022/03/03 06:15:51;;;;;;;;;;;13.70;52.10;;;;;;5072762;28;19934;-69
2022/03/03 06:18:19;;;;;;;;;;;13.40;51.90;;;;;;5072854;28;19925;-70
2022/03/03 06:20:47;;;;;;;;;;;14.20;52.40;;;;;;5073057;28;19931;-69
2022/03/03 06:23:14;;;;;;;;;;;13.40;51.90;;;;;;5072880;28;19924;-68
2022/03/03 06:25:40;;;;;;;;;;;14.10;52.30;;;;;;5071081;28;19924;-69
2022/03/03 06:28:08;;;;;;;;;;;13.40;51.90;;;;;;5072721;28;20378;-69
2022/03/03 06:30:35;;;;;;;;;;;13.40;51.90;;;;;;5072797;28;19924;-69
2022/03/03 06:33:03;;;;;;;;;;;13.40;51.90;;;;;;5072603;28;19978;-69
2022/03/03 06:35:35;;;;;;;;;;;13.40;51.90;;;;;;5072420;28;19929;-68
2022/03/03 06:38:05;;;;;;;;;;;13.40;51.90;;;;;;5073558;28;19925;-69
2022/03/03 06:40:32;;;;;;;;;;;13.80;52.10;;;;;;5072902;28;19924;-69
2022/03/03 06:43:00;;;;;;;;;;;13.40;51.80;;;;;;5072447;28;20333;-69
2022/03/03 06:45:27;;;;;;;;;;;13.40;51.80;;;;;;5072287;28;19924;-69
2022/03/03 06:47:54;;;;;;;;;;;13.40;51.80;;;;;;5072328;28;19928;-69
2022/03/03 06:50:20;;;;;;;;;;;13.40;51.80;;;;;;5071500;28;19925;-70
2022/03/03 06:52:47;;;;;;;;;;;13.40;51.80;;;;;;5073232;28;19931;-69
2022/03/03 06:55:15;;;;;;;;;;;13.40;51.80;;;;;;5071221;28;19930;-69
2022/03/03 06:57:42;;;;;;;;;;;13.90;52.10;;;;;;5072129;28;19925;-70
2022/03/03 07:00:09;;;;;;;;;;;13.70;52.00;;;;;;5072395;28;19925;-69
2022/03/03 07:02:37;;;;;;;;;;;13.40;51.80;;;;;;5072253;28;19932;-69
2022/03/03 07:05:04;;;;;;;;;;;13.40;51.80;;;;;;5071210;28;19950;-70
2022/03/03 07:07:31;;;;;;;;;;;13.40;51.80;;;;;;5079174;28;19924;-70
2022/03/03 07:09:57;;;;;;;;;;;13.60;51.90;;;;;;5072236;28;19950;-69
2022/03/03 07:12:25;;;;;;;;;;;13.40;51.70;;;;;;5071357;28;19947;-70
2022/03/03 07:14:52;;;;;;;;;;;13.40;51.70;;;;;;5072673;28;20266;-70
2022/03/03 07:17:21;;;;;;;;;;;13.40;51.70;;;;;;5073699;28;20309;-70
2022/03/03 07:19:50;;;;;;;;;;;13.40;51.80;;;;;;5072620;28;19925;-69
2022/03/03 07:22:18;;;;;;;;;;;13.40;51.70;;;;;;5081129;28;20277;-69
2022/03/03 07:24:45;;;;;;;;;;;13.40;51.70;;;;;;5081447;28;19928;-70
2022/03/03 07:27:15;;;;;;;;;;;13.40;51.70;;;;;;5075642;28;20280;-70
2022/03/03 07:29:43;;;;;;;;;;;13.40;51.80;;;;;;5072220;28;19924;-70
2022/03/03 07:32:10;;;;;;;;;;;13.50;52.30;;;;;;5072205;28;19935;-69
2022/03/03 07:34:37;;;;;;;;;;;13.60;52.00;;;;;;5077040;28;19971;-70
2022/03/03 07:37:05;;;;;;;;;;;13.60;51.80;;;;;;5081313;28;19931;-69
2022/03/03 07:39:33;;;;;;;;;;;13.60;51.70;;;;;;5081275;28;19930;-69
2022/03/03 07:42:00;;;;;;;;;;;13.80;51.80;;;;;;5073100;28;20308;-69
2022/03/03 07:44:26;;;;;;;;;;;13.70;51.80;;;;;;5080123;28;20300;-69
2022/03/03 07:46:54;;;;;;;;;;;13.70;51.70;;;;;;5079548;28;20303;-70
2022/03/03 07:49:21;;;;;;;;;;;13.70;51.70;;;;;;5079682;28;19930;-70
2022/03/03 07:51:48;;;;;;;;;;;13.80;51.70;;;;;;5083508;28;19924;-70
2022/03/03 07:54:15;;;;;;;;;;;13.80;51.70;;;;;;5081258;28;20308;-69
2022/03/03 07:56:41;;;;;;;;;;;13.80;51.70;;;;;;5085995;28;19924;-69
2022/03/03 07:59:10;;;;;;;;;;;13.80;51.70;;;;;;5085642;28;19931;-70
2022/03/03 08:01:37;;;;;;;;;;;13.80;51.70;;;;;;5082459;28;19931;-69
2022/03/03 08:04:05;;;;;;;;;;;13.80;51.70;;;;;;5080725;28;20407;-70
2022/03/03 08:06:32;;;;;;;;;;;13.80;51.70;;;;;;5075750;28;19924;-70
2022/03/03 08:08:59;;;;;;;;;;;13.90;51.80;;;;;;5093528;28;20520;-70
2022/03/03 08:11:25;;;;;;;;;;;13.90;51.70;;;;;;5093645;28;20440;-69
2022/03/03 08:13:52;;;;;;;;;;;13.90;51.70;;;;;;5093657;28;20406;-70
2022/03/03 08:16:19;;;;;;;;;;;13.90;51.70;;;;;;5088501;28;20651;-69
2022/03/03 08:18:46;;;;;;;;;;;13.90;51.70;;;;;;5086541;28;20399;-70
2022/03/03 08:21:14;;;;;;;;;;;14.00;51.70;;;;;;5074995;28;19929;-69
2022/03/03 08:23:40;;;;;;;;;;;14.00;51.70;;;;;;5089514;28;19924;-70
2022/03/03 08:26:08;;;;;;;;;;;14.00;51.70;;;;;;5093900;28;20307;-68
2022/03/03 08:28:34;;;;;;;;;;;14.00;51.70;;;;;;5086820;28;19951;-70
2022/03/03 08:31:01;;;;;;;;;;;14.00;51.70;;;;;;5075309;28;19924;-70
2022/03/03 08:33:31;;;;;;;;;;;14.10;51.80;;;;;;5074946;28;19958;-69
2022/03/03 08:35:58;;;;;;;;;;;14.10;51.80;;;;;;5074888;28;19932;-69
2022/03/03 08:38:30;;;;;;;;;;;14.10;51.70;;;;;;5075210;28;19924;-70
2022/03/03 08:40:57;;;;;;;;;;;14.10;51.70;;;;;;5075296;28;19925;-70
2022/03/03 08:43:24;;;;;;;;;;;14.10;51.70;;;;;;5093262;28;19969;-69
2022/03/03 08:45:50;;;;;;;;;;;14.10;51.70;;;;;;5095077;28;19928;-70
2022/03/03 08:48:17;;;;;;;;;;;14.10;51.70;;;;;;5093879;28;19924;-70
2022/03/03 08:50:44;;;;;;;;;;;14.20;51.70;;;;;;5085990;28;20328;-69
2022/03/03 08:53:10;;;;;;;;;;;14.20;52.30;;;;;;5082240;28;20399;-70
2022/03/03 08:55:38;;;;;;;;;;;14.20;51.70;;;;;;5074503;28;19931;-70
2022/03/03 08:58:06;;;;;;;;;;;14.20;51.70;;;;;;5074300;28;19968;-68
2022/03/03 09:00:33;;;;;;;;;;;14.20;51.70;;;;;;5074662;28;19924;-69
2022/03/03 09:03:00;;;;;;;;;;;14.30;51.70;;;;;;5073496;28;20384;-69
2022/03/03 09:05:26;;;;;;;;;;;14.30;51.70;;;;;;5084752;28;20299;-71
2022/03/03 09:07:53;;;;;;;;;;;14.30;51.70;;;;;;5094428;28;19924;-70
2022/03/03 09:10:20;;;;;;;;;;;14.30;51.60;;;;;;5092656;28;19967;-70
2022/03/03 09:12:48;;;;;;;;;;;14.50;51.80;;;;;;5093005;28;19931;-70
2022/03/03 09:15:15;;;;;;;;;;;14.30;51.60;;;;;;5091894;28;19930;-70
2022/03/03 09:17:41;;;;;;;;;;;14.30;51.60;;;;;;5092739;28;19931;-70
2022/03/03 09:20:08;;;;;;;;;;;14.40;51.60;;;;;;5093235;28;20010;-70
2022/03/03 09:22:36;;;;;;;;;;;14.30;51.60;;;;;;5093468;28;20403;-70
2022/03/03 09:25:03;;;;;;;;;;;14.40;51.60;;;;;;5093180;28;19931;-70
2022/03/03 09:27:30;;;;;;;;;;;14.40;51.60;;;;;;5093096;28;19967;-70
2022/03/03 09:29:58;;;;;;;;;;;14.40;51.60;;;;;;5094288;28;19924;-70
2022/03/03 09:32:24;;;;;;;;;;;14.40;51.60;;;;;;5092254;28;19931;-70
2022/03/03 09:34:51;;;;;;;;;;;14.40;51.60;;;;;;5092954;28;19930;-71
2022/03/03 09:37:17;;;;;;;;;;;14.50;51.70;;;;;;5092482;28;19930;-71
2022/03/03 09:39:49;;;;;;;;;;;14.40;51.60;;;;;;5093891;28;19935;-69
2022/03/03 09:42:16;;;;;;;;;;;14.40;51.50;;;;;;5085542;28;20014;-70
2022/03/03 09:44:42;;;;;;;;;;;14.50;51.50;;;;;;5088481;28;20303;-70
2022/03/03 09:47:12;;;;;;;;;;;14.50;51.50;;;;;;5087827;28;19924;-70
2022/03/03 09:49:38;;;;;;;;;;;14.50;51.50;;;;;;5081400;28;19924;-70
2022/03/03 09:52:11;;;;;;;;;;;14.50;51.50;;;;;;5079459;28;19925;-70
2022/03/03 09:54:38;;;;;;;;;;;14.50;51.50;;;;;;5081834;28;19931;-70
2022/03/03 09:57:05;;;;;;;;;;;14.50;51.40;;;;;;5080519;28;20296;-70
2022/03/03 09:59:31;;;;;;;;;;;14.50;51.40;;;;;;5081016;28;19924;-70
2022/03/03 10:02:03;;;;;;;;;;;14.60;51.40;;;;;;5081942;28;19925;-70
2022/03/03 10:04:31;;;;;;;;;;;14.60;51.40;;;;;;5080669;28;19924;-71
2022/03/03 10:06:57;;;;;;;;;;;14.60;51.40;;;;;;5083166;28;19946;-70
2022/03/03 10:09:24;;;;;;;;;;;14.60;51.30;;;;;;5082433;28;20006;-70
2022/03/03 10:12:00;;;;;;;;;;;14.60;51.30;;;;;;5063135;28;19927;-70
2022/03/03 10:14:27;;;;;;;;;;;14.70;51.30;;;;;;5090321;28;19970;-70
2022/03/03 10:16:54;;;;;;;;;;;14.70;51.30;;;;;;5091157;28;19925;-70
2022/03/03 10:19:20;;;;;;;;;;;14.70;51.20;;;;;;5092260;28;19927;-70
2022/03/03 10:21:49;;;;;;;;;;;14.70;51.10;;;;;;5093394;28;20373;-70
2022/03/03 10:24:16;;;;;;;;;;;14.80;51.20;;;;;;5080079;28;19924;-70
2022/03/03 10:26:44;;;;;;;;;;;14.80;51.10;;;;;;5065247;28;19932;-70
2022/03/03 10:29:17;;;;;;;;;;;14.80;51.00;;;;;;5078858;28;19935;-70
2022/03/03 10:31:47;;;;;;;;;;;14.90;51.10;;;;;;5091870;28;19924;-70
2022/03/03 10:34:18;;;;;;;;;;;14.90;51.00;;;;;;5082121;28;19925;-70
2022/03/03 10:36:44;;;;;;;;;;;14.90;51.00;;;;;;5089070;28;20021;-70
2022/03/03 10:39:13;;;;;;;;;;;14.90;51.00;;;;;;5092751;28;19924;-67
2022/03/03 10:41:40;;;;;;;;;;;14.90;51.30;;;;;;5092944;28;20423;-68
2022/03/03 10:44:07;;;;;;;;;;;15.00;51.50;;;;;;5091934;28;20292;-69
2022/03/03 10:46:34;;;;;;;;;;;15.00;51.40;;;;;;5091628;28;19924;-69
2022/03/03 10:49:01;;;;;;;;;;;15.10;51.50;;;;;;5084814;28;19929;-69
2022/03/03 10:51:28;;;;;;;;;;;15.10;51.20;;;;;;5071614;28;19972;-69
2022/03/03 10:53:58;;;;;;;;;;;15.20;51.00;;;;;;5071038;28;19924;-69
2022/03/03 10:56:26;;;;;;;;;;;15.30;50.90;;;;;;5072195;28;20377;-69
2022/03/03 10:58:57;;;;;;;;;;;15.30;50.80;;;;;;5073683;28;19934;-69
2022/03/03 11:01:24;;;;;;;;;;;15.40;50.70;;;;;;5072065;28;19979;-69
2022/03/03 11:03:51;;;;;;;;;;;15.40;50.70;;;;;;5072662;28;20287;-69
2022/03/03 11:06:18;;;;;;;;;;;15.40;50.70;;;;;;5072217;28;19924;-69
2022/03/03 11:08:45;;;;;;;;;;;15.40;50.50;;;;;;5072163;28;20369;-69
2022/03/03 11:11:12;;;;;;;;;;;15.50;50.70;;;;;;5072246;28;19956;-69
2022/03/03 11:13:40;;;;;;;;;;;15.50;50.80;;;;;;5072335;28;19925;-69
2022/03/03 11:16:07;;;;;;;;;;;15.40;50.80;;;;;;5072242;28;19924;-69
2022/03/03 11:18:33;;;;;;;;;;;15.50;51.40;;;;;;5071807;28;20303;-68
2022/03/03 11:21:00;;;;;;;;;;;15.50;51.50;;;;;;5070814;28;19924;-69
2022/03/03 11:23:31;;;;;;;;;;;15.50;51.70;;;;;;5071912;28;19924;-69
2022/03/03 11:25:57;;;;;;;;;;;15.50;51.50;;;;;;5070031;28;19925;-68
2022/03/03 11:28:24;;;;;;;;;;;15.60;51.40;;;;;;5072950;28;19925;-70
2022/03/03 11:30:56;;;;;;;;;;;15.60;51.30;;;;;;5076051;28;19928;-68
2022/03/03 11:33:24;;;;;;;;;;;15.50;51.10;;;;;;5075313;28;19929;-70
2022/03/03 11:35:52;;;;;;;;;;;15.60;51.10;;;;;;5074237;28;19981;-69
2022/03/03 11:38:18;;;;;;;;;;;15.50;51.00;;;;;;5085289;28;19924;-70
2022/03/03 11:40:51;;;;;;;;;;;15.60;51.00;;;;;;5084568;28;20373;-70
2022/03/03 11:43:18;;;;;;;;;;;15.50;51.00;;;;;;5096303;28;19931;-69
2022/03/03 11:45:48;;;;;;;;;;;15.50;50.90;;;;;;5096256;28;20016;-70
2022/03/03 11:48:16;;;;;;;;;;;15.60;51.00;;;;;;5094924;28;20014;-70
2022/03/03 11:50:43;;;;;;;;;;;15.50;50.80;;;;;;5095324;28;19993;-70
2022/03/03 11:53:20;;;;;;;;;;;15.50;50.80;;;;;;5086812;28;19924;-70
2022/03/03 11:55:47;;;;;;;;;;;15.50;50.70;;;;;;5084790;28;19978;-70
2022/03/03 11:58:14;;;;;;;;;;;15.50;50.60;;;;;;5083224;28;19931;-69
2022/03/03 12:00:41;;;;;;;;;;;15.50;50.50;;;;;;5084238;28;19934;-70
2022/03/03 12:03:08;;;;;;;;;;;15.50;50.50;;;;;;5082693;28;19931;-70
2022/03/03 12:05:46;;;;;;;;;;;15.40;50.40;;;;;;5085741;28;20007;-70
2022/03/03 12:08:32;;;;;;;;;;;15.40;50.40;;;;;;5082723;28;19971;-69
2022/03/03 12:10:59;;;;;;;;;;;15.30;50.30;;;;;;5081429;28;20030;-69
2022/03/03 12:13:26;;;;;;;;;;;15.30;50.40;;;;;;5082957;28;19931;-69
2022/03/03 12:16:12;;;;;;;;;;;15.30;50.40;;;;;;5081851;28;19931;-69
2022/03/03 12:18:38;;;;;;;;;;;15.30;50.50;;;;;;5080291;28;20311;-69
2022/03/03 12:21:25;;;;;;;;;;;15.20;50.50;;;;;;5075635;28;19947;-70
2022/03/03 12:23:52;;;;;;;;;;;15.20;50.60;;;;;;5074317;28;19924;-70
2022/03/03 12:26:18;;;;;;;;;;;15.10;50.60;;;;;;5073884;28;20015;-71
2022/03/03 12:28:47;;;;;;;;;;;15.10;50.60;;;;;;5082116;28;19930;-71
2022/03/03 12:31:21;;;;;;;;;;;15.10;50.70;;;;;;5093711;28;19931;-71
2022/03/03 12:33:57;;;;;;;;;;;15.00;50.60;;;;;;5074040;28;20380;-70
2022/03/03 12:36:25;;;;;;;;;;;15.00;50.80;;;;;;5075040;28;19930;-70
2022/03/03 12:38:52;;;;;;;;;;;15.00;50.70;;;;;;5073270;28;19931;-70
2022/03/03 12:41:21;;;;;;;;;;;15.00;50.90;;;;;;5074857;28;20015;-70
2022/03/03 12:43:47;;;;;;;;;;;15.00;50.90;;;;;;5074627;28;20277;-70
2022/03/03 12:46:14;;;;;;;;;;;15.10;51.10;;;;;;5074799;28;19924;-70
2022/03/03 12:48:41;;;;;;;;;;;15.00;51.10;;;;;;5074903;28;19929;-70
2022/03/03 12:51:08;;;;;;;;;;;15.10;51.20;;;;;;5075111;28;19931;-70
2022/03/03 12:53:36;;;;;;;;;;;15.10;51.20;;;;;;5074539;28;19924;-71
2022/03/03 12:56:03;;;;;;;;;;;15.00;51.10;;;;;;5073195;28;19934;-71
2022/03/03 12:58:30;;;;;;;;;;;15.10;51.20;;;;;;5073390;28;19924;-70
2022/03/03 13:00:57;;;;;;;;;;;15.10;51.30;;;;;;5073650;28;19931;-70
2022/03/03 13:03:24;;;;;;;;;;;15.10;51.40;;;;;;5073697;28;19924;-71
2022/03/03 13:05:51;;;;;;;;;;;15.10;51.50;;;;;;5094812;28;19946;-70
2022/03/03 13:08:22;;;;;;;;;;;15.10;51.50;;;;;;5093643;28;19924;-70
2022/03/03 13:10:50;;;;;;;;;;;15.10;51.50;;;;;;5093561;28;19931;-71
2022/03/03 13:13:16;;;;;;;;;;;15.10;51.50;;;;;;5094931;28;20333;-71
2022/03/03 13:15:44;;;;;;;;;;;15.10;51.60;;;;;;5093402;28;19924;-71
2022/03/03 13:18:11;;;;;;;;;;;15.10;51.60;;;;;;5093101;28;19936;-71
2022/03/03 13:20:38;;;;;;;;;;;15.10;51.70;;;;;;5087161;28;19929;-71
2022/03/03 13:23:05;;;;;;;;;;;15.10;51.70;;;;;;5073266;28;19931;-70
2022/03/03 13:25:32;;;;;;;;;;;15.10;51.70;;;;;;5073498;28;20440;-71
2022/03/03 13:28:00;;;;;;;;;;;15.10;51.70;;;;;;5074085;28;19986;-70
2022/03/03 13:30:26;;;;;;;;;;;15.10;51.70;;;;;;5074163;28;19925;-71
2022/03/03 13:32:53;;;;;;;;;;;15.10;51.70;;;;;;5074073;28;19925;-70
2022/03/03 13:35:20;;;;;;;;;;;15.20;51.80;;;;;;5072891;28;19924;-71
2022/03/03 13:37:47;;;;;;;;;;;15.20;51.80;;;;;;5073723;28;19931;-70
2022/03/03 13:40:18;;;;;;;;;;;15.20;51.80;;;;;;5072539;28;20300;-70
2022/03/03 13:42:44;;;;;;;;;;;15.20;51.80;;;;;;5074134;28;20016;-70
2022/03/03 13:45:12;;;;;;;;;;;15.20;51.80;;;;;;5073766;28;19924;-70
2022/03/03 13:47:41;;;;;;;;;;;15.20;51.80;;;;;;5073427;28;19924;-70
2022/03/03 13:50:09;;;;;;;;;;;15.20;51.80;;;;;;5073452;28;20020;-70
2022/03/03 13:52:36;;;;;;;;;;;15.20;51.80;;;;;;5072472;28;19939;-71
2022/03/03 13:55:07;;;;;;;;;;;15.20;51.80;;;;;;5091778;28;20400;-70
2022/03/03 13:57:38;;;;;;;;;;;15.20;51.80;;;;;;5093386;28;19947;-70
2022/03/03 14:00:06;;;;;;;;;;;15.20;51.80;;;;;;5092831;28;19924;-70
2022/03/03 14:02:34;;;;;;;;;;;15.30;51.80;;;;;;5092611;28;19924;-70
2022/03/03 14:05:01;;;;;;;;;;;15.30;51.80;;;;;;5093899;28;19924;-70
2022/03/03 14:07:29;;;;;;;;;;;15.30;51.80;;;;;;5092231;28;19924;-70
2022/03/03 14:09:56;;;;;;;;;;;15.30;51.80;;;;;;5087380;28;20301;-70
2022/03/03 14:12:22;;;;;;;;;;;15.30;51.80;;;;;;5072308;28;20384;-71
2022/03/03 14:14:49;;;;;;;;;;;15.30;51.80;;;;;;5088722;28;20284;-71
2022/03/03 14:17:16;;;;;;;;;;;15.30;51.80;;;;;;5072061;28;19924;-72
2022/03/03 14:19:44;;;;;;;;;;;15.30;51.80;;;;;;5073251;28;19931;-71